sensor_id;sensor_type;location;lat;lon;timestamp;pressure;altitude;pressure_sealevel;temperature;humidity
65832;BME280;52593;42.648;23.332;2022-07-11T00:01:29;94567.00;;;17.06;56.55
65832;BME280;52593;42.648;23.332;2022-07-11T00:03:56;94570.16;;;17.03;56.40
65832;BME280;52593;42.648;23.332;2022-07-11T00:06:21;94566.31;;;16.92;56.43
65832;BME280;52593;42.648;23.332;2022-07-11T00:08:47;94568.59;;;16.89;57.27
65832;BME280;52593;42.648;23.332;2022-07-11T00:11:12;94571.56;;;16.81;56.73
65832;BME280;52593;42.648;23.332;2022-07-11T00:13:37;94572.81;;;16.78;57.96
65832;BME280;52593;42.648;23.332;2022-07-11T00:16:04;94573.78;;;16.65;57.76
65832;BME280;52593;42.648;23.332;2022-07-11T00:18:29;94574.06;;;16.57;57.04
65832;BME280;52593;42.648;23.332;2022-07-11T00:20:55;94580.72;;;16.54;57.16
65832;BME280;52593;42.648;23.332;2022-07-11T00:23:20;94579.84;;;16.61;57.90
65832;BME280;52593;42.648;23.332;2022-07-11T00:25:46;94578.03;;;16.54;57.67
65832;BME280;52593;42.648;23.332;2022-07-11T00:28:11;94583.06;;;16.51;57.30
65832;BME280;52593;42.648;23.332;2022-07-11T00:30:36;94579.56;;;16.44;57.60
65832;BME280;52593;42.648;23.332;2022-07-11T00:33:02;94587.03;;;16.41;57.76
65832;BME280;52593;42.648;23.332;2022-07-11T00:35:27;94593.66;;;16.46;58.21
65832;BME280;52593;42.648;23.332;2022-07-11T00:37:53;94584.78;;;16.38;58.35
65832;BME280;52593;42.648;23.332;2022-07-11T00:40:18;94590.84;;;16.34;58.19
65832;BME280;52593;42.648;23.332;2022-07-11T00:42:43;94596.00;;;16.35;58.40
65832;BME280;52593;42.648;23.332;2022-07-11T00:45:09;94591.25;;;16.37;58.68
65832;BME280;52593;42.648;23.332;2022-07-11T00:47:34;94586.13;;;16.54;58.93
65832;BME280;52593;42.648;23.332;2022-07-11T00:50:00;94587.81;;;16.49;58.29
65832;BME280;52593;42.648;23.332;2022-07-11T00:52:25;94591.47;;;16.36;58.48
65832;BME280;52593;42.648;23.332;2022-07-11T00:54:51;94587.31;;;16.33;58.98
65832;BME280;52593;42.648;23.332;2022-07-11T00:57:17;94591.91;;;16.33;59.24
65832;BME280;52593;42.648;23.332;2022-07-11T00:59:43;94589.44;;;16.25;59.37
65832;BME280;52593;42.648;23.332;2022-07-11T01:02:09;94584.91;;;16.18;59.78
65832;BME280;52593;42.648;23.332;2022-07-11T01:04:34;94586.41;;;16.14;60.22
65832;BME280;52593;42.648;23.332;2022-07-11T01:07:00;94589.56;;;16.04;60.21
65832;BME280;52593;42.648;23.332;2022-07-11T01:09:27;94589.41;;;15.99;60.81
65832;BME280;52593;42.648;23.332;2022-07-11T01:11:52;94583.84;;;15.94;60.69
65832;BME280;52593;42.648;23.332;2022-07-11T01:14:18;94587.19;;;15.90;60.65
65832;BME280;52593;42.648;23.332;2022-07-11T01:16:44;94589.25;;;15.87;60.94
65832;BME280;52593;42.648;23.332;2022-07-11T01:19:09;94585.28;;;15.90;61.52
65832;BME280;52593;42.648;23.332;2022-07-11T01:21:39;94578.38;;;16.01;60.19
65832;BME280;52593;42.648;23.332;2022-07-11T01:24:05;94574.81;;;16.07;59.60
65832;BME280;52593;42.648;23.332;2022-07-11T01:26:31;94588.91;;;16.16;59.61
65832;BME280;52593;42.648;23.332;2022-07-11T01:29:05;94588.69;;;16.11;58.99
65832;BME280;52593;42.648;23.332;2022-07-11T01:31:30;94585.00;;;16.05;59.65
65832;BME280;52593;42.648;23.332;2022-07-11T01:33:57;94579.56;;;16.12;58.85
65832;BME280;52593;42.648;23.332;2022-07-11T01:36:22;94581.84;;;16.15;58.41
65832;BME280;52593;42.648;23.332;2022-07-11T01:38:47;94581.03;;;16.08;58.25
65832;BME280;52593;42.648;23.332;2022-07-11T01:41:13;94575.09;;;15.92;58.61
65832;BME280;52593;42.648;23.332;2022-07-11T01:43:38;94582.59;;;15.90;58.91
65832;BME280;52593;42.648;23.332;2022-07-11T01:46:04;94582.13;;;16.00;59.04
65832;BME280;52593;42.648;23.332;2022-07-11T01:48:29;94578.78;;;16.04;58.30
65832;BME280;52593;42.648;23.332;2022-07-11T01:50:55;94585.66;;;16.00;58.31
65832;BME280;52593;42.648;23.332;2022-07-11T01:53:20;94590.03;;;15.95;58.75
65832;BME280;52593;42.648;23.332;2022-07-11T01:55:46;94592.53;;;15.96;58.72
65832;BME280;52593;42.648;23.332;2022-07-11T01:58:11;94599.81;;;15.89;58.76
65832;BME280;52593;42.648;23.332;2022-07-11T02:00:37;94593.13;;;15.98;58.83
65832;BME280;52593;42.648;23.332;2022-07-11T02:03:02;94594.00;;;15.92;58.87
65832;BME280;52593;42.648;23.332;2022-07-11T02:05:28;94591.88;;;16.01;58.75
65832;BME280;52593;42.648;23.332;2022-07-11T02:07:54;94597.50;;;15.99;58.79
65832;BME280;52593;42.648;23.332;2022-07-11T02:10:42;94594.78;;;15.99;58.83
65832;BME280;52593;42.648;23.332;2022-07-11T02:13:08;94594.56;;;16.01;58.96
65832;BME280;52593;42.648;23.332;2022-07-11T02:15:35;94605.84;;;15.91;59.15
65832;BME280;52593;42.648;23.332;2022-07-11T02:18:00;94594.44;;;15.89;59.32
65832;BME280;52593;42.648;23.332;2022-07-11T02:20:26;94602.56;;;15.82;59.08
65832;BME280;52593;42.648;23.332;2022-07-11T02:22:52;94607.13;;;15.75;59.71
65832;BME280;52593;42.648;23.332;2022-07-11T02:25:18;94607.59;;;15.65;60.30
65832;BME280;52593;42.648;23.332;2022-07-11T02:27:43;94611.13;;;15.59;59.97
65832;BME280;52593;42.648;23.332;2022-07-11T02:30:09;94604.69;;;15.60;60.61
65832;BME280;52593;42.648;23.332;2022-07-11T02:32:36;94610.72;;;15.56;61.26
65832;BME280;52593;42.648;23.332;2022-07-11T02:35:02;94607.38;;;15.60;60.11
65832;BME280;52593;42.648;23.332;2022-07-11T02:37:28;94605.53;;;15.54;60.72
65832;BME280;52593;42.648;23.332;2022-07-11T02:39:53;94619.09;;;15.27;60.62
65832;BME280;52593;42.648;23.332;2022-07-11T02:42:19;94617.22;;;15.34;60.68
65832;BME280;52593;42.648;23.332;2022-07-11T02:44:45;94616.41;;;15.27;60.79
65832;BME280;52593;42.648;23.332;2022-07-11T02:47:11;94613.06;;;15.39;60.77
65832;BME280;52593;42.648;23.332;2022-07-11T02:49:36;94615.59;;;15.27;60.82
65832;BME280;52593;42.648;23.332;2022-07-11T02:52:03;94625.53;;;15.13;61.17
65832;BME280;52593;42.648;23.332;2022-07-11T02:54:29;94615.81;;;15.19;61.42
65832;BME280;52593;42.648;23.332;2022-07-11T02:56:54;94621.63;;;15.22;61.10
65832;BME280;52593;42.648;23.332;2022-07-11T02:59:20;94623.47;;;15.22;60.67
65832;BME280;52593;42.648;23.332;2022-07-11T03:01:46;94628.03;;;15.34;61.69
65832;BME280;52593;42.648;23.332;2022-07-11T03:04:11;94632.16;;;15.30;60.45
65832;BME280;52593;42.648;23.332;2022-07-11T03:06:37;94630.94;;;15.33;59.67
65832;BME280;52593;42.648;23.332;2022-07-11T03:09:07;94628.22;;;15.33;60.00
65832;BME280;52593;42.648;23.332;2022-07-11T03:11:33;94639.81;;;15.40;59.91
65832;BME280;52593;42.648;23.332;2022-07-11T03:13:58;94636.94;;;15.28;59.38
65832;BME280;52593;42.648;23.332;2022-07-11T03:16:26;94638.97;;;15.40;60.20
65832;BME280;52593;42.648;23.332;2022-07-11T03:18:52;94632.34;;;15.42;59.38
65832;BME280;52593;42.648;23.332;2022-07-11T03:21:18;94638.38;;;15.38;59.51
65832;BME280;52593;42.648;23.332;2022-07-11T03:23:43;94646.22;;;15.46;58.82
65832;BME280;52593;42.648;23.332;2022-07-11T03:26:08;94641.84;;;15.58;59.02
65832;BME280;52593;42.648;23.332;2022-07-11T03:28:34;94637.91;;;15.54;57.88
65832;BME280;52593;42.648;23.332;2022-07-11T03:30:59;94627.31;;;15.52;58.09
65832;BME280;52593;42.648;23.332;2022-07-11T03:33:25;94636.06;;;15.55;58.45
65832;BME280;52593;42.648;23.332;2022-07-11T03:35:50;94634.41;;;15.47;58.56
65832;BME280;52593;42.648;23.332;2022-07-11T03:38:19;94642.06;;;15.43;59.14
65832;BME280;52593;42.648;23.332;2022-07-11T03:40:45;94644.38;;;15.40;59.10
65832;BME280;52593;42.648;23.332;2022-07-11T03:43:12;94643.78;;;15.38;59.43
65832;BME280;52593;42.648;23.332;2022-07-11T03:45:37;94643.31;;;15.47;59.65
65832;BME280;52593;42.648;23.332;2022-07-11T03:48:04;94646.66;;;15.43;59.45
65832;BME280;52593;42.648;23.332;2022-07-11T03:50:29;94652.88;;;15.37;60.02
65832;BME280;52593;42.648;23.332;2022-07-11T03:52:55;94653.50;;;15.45;60.00
65832;BME280;52593;42.648;23.332;2022-07-11T03:55:21;94667.78;;;15.52;59.79
65832;BME280;52593;42.648;23.332;2022-07-11T03:57:47;94664.88;;;15.47;59.89
65832;BME280;52593;42.648;23.332;2022-07-11T04:00:13;94661.97;;;15.49;60.41
65832;BME280;52593;42.648;23.332;2022-07-11T04:02:38;94670.91;;;15.56;60.26
65832;BME280;52593;42.648;23.332;2022-07-11T04:05:04;94677.28;;;15.62;61.16
65832;BME280;52593;42.648;23.332;2022-07-11T04:07:30;94669.97;;;15.76;60.19
65832;BME280;52593;42.648;23.332;2022-07-11T04:09:56;94687.03;;;15.69;60.63
65832;BME280;52593;42.648;23.332;2022-07-11T04:12:21;94684.59;;;15.55;61.21
65832;BME280;52593;42.648;23.332;2022-07-11T04:14:47;94684.16;;;15.51;61.41
65832;BME280;52593;42.648;23.332;2022-07-11T04:17:13;94681.03;;;15.54;61.90
65832;BME280;52593;42.648;23.332;2022-07-11T04:19:39;94686.44;;;15.54;62.01
65832;BME280;52593;42.648;23.332;2022-07-11T04:22:05;94695.97;;;15.63;62.29
65832;BME280;52593;42.648;23.332;2022-07-11T04:24:30;94701.38;;;15.57;62.69
65832;BME280;52593;42.648;23.332;2022-07-11T04:26:56;94699.69;;;15.69;62.18
65832;BME280;52593;42.648;23.332;2022-07-11T04:29:22;94697.38;;;15.73;61.90
65832;BME280;52593;42.648;23.332;2022-07-11T04:31:49;94694.53;;;15.61;62.22
65832;BME280;52593;42.648;23.332;2022-07-11T04:34:16;94689.97;;;15.61;62.26
65832;BME280;52593;42.648;23.332;2022-07-11T04:36:42;94686.03;;;15.64;62.26
65832;BME280;52593;42.648;23.332;2022-07-11T04:39:08;94687.88;;;15.63;62.12
65832;BME280;52593;42.648;23.332;2022-07-11T04:41:33;94691.81;;;15.81;62.59
65832;BME280;52593;42.648;23.332;2022-07-11T04:43:59;94683.06;;;15.85;62.06
65832;BME280;52593;42.648;23.332;2022-07-11T04:46:24;94689.28;;;15.86;61.63
65832;BME280;52593;42.648;23.332;2022-07-11T04:48:50;94682.03;;;15.86;62.18
65832;BME280;52593;42.648;23.332;2022-07-11T04:51:15;94692.63;;;15.81;61.44
65832;BME280;52593;42.648;23.332;2022-07-11T04:53:42;94685.78;;;15.79;61.05
65832;BME280;52593;42.648;23.332;2022-07-11T04:56:08;94676.22;;;15.76;60.87
65832;BME280;52593;42.648;23.332;2022-07-11T04:58:33;94683.72;;;15.81;61.24
65832;BME280;52593;42.648;23.332;2022-07-11T05:00:59;94690.16;;;15.80;61.25
65832;BME280;52593;42.648;23.332;2022-07-11T05:03:25;94691.19;;;15.85;61.59
65832;BME280;52593;42.648;23.332;2022-07-11T05:05:51;94692.84;;;15.86;61.41
65832;BME280;52593;42.648;23.332;2022-07-11T05:08:16;94693.19;;;15.97;61.20
65832;BME280;52593;42.648;23.332;2022-07-11T05:10:41;94697.75;;;16.03;61.39
65832;BME280;52593;42.648;23.332;2022-07-11T05:13:07;94694.19;;;16.09;62.33
65832;BME280;52593;42.648;23.332;2022-07-11T05:15:32;94708.09;;;16.13;60.93
65832;BME280;52593;42.648;23.332;2022-07-11T05:17:57;94708.53;;;16.10;60.52
65832;BME280;52593;42.648;23.332;2022-07-11T05:20:23;94713.72;;;16.04;60.38
65832;BME280;52593;42.648;23.332;2022-07-11T05:22:48;94715.22;;;16.00;60.37
65832;BME280;52593;42.648;23.332;2022-07-11T05:25:14;94724.38;;;15.93;60.08
65832;BME280;52593;42.648;23.332;2022-07-11T05:27:39;94710.44;;;15.96;60.08
65832;BME280;52593;42.648;23.332;2022-07-11T05:30:05;94716.84;;;16.01;60.39
65832;BME280;52593;42.648;23.332;2022-07-11T05:32:31;94709.38;;;15.97;59.61
65832;BME280;52593;42.648;23.332;2022-07-11T05:34:56;94709.34;;;16.10;61.13
65832;BME280;52593;42.648;23.332;2022-07-11T05:37:23;94709.16;;;16.05;60.41
65832;BME280;52593;42.648;23.332;2022-07-11T05:39:49;94706.88;;;16.09;61.05
65832;BME280;52593;42.648;23.332;2022-07-11T05:42:16;94723.63;;;16.24;59.80
65832;BME280;52593;42.648;23.332;2022-07-11T05:44:41;94703.69;;;16.25;56.71
65832;BME280;52593;42.648;23.332;2022-07-11T05:47:06;94709.31;;;16.17;55.39
65832;BME280;52593;42.648;23.332;2022-07-11T05:49:32;94702.41;;;16.28;54.31
65832;BME280;52593;42.648;23.332;2022-07-11T05:51:57;94714.44;;;16.32;56.15
65832;BME280;52593;42.648;23.332;2022-07-11T05:54:23;94706.72;;;16.35;55.08
65832;BME280;52593;42.648;23.332;2022-07-11T05:56:48;94708.59;;;16.35;54.85
65832;BME280;52593;42.648;23.332;2022-07-11T05:59:14;94714.72;;;16.17;50.64
65832;BME280;52593;42.648;23.332;2022-07-11T06:01:40;94705.19;;;16.08;49.74
65832;BME280;52593;42.648;23.332;2022-07-11T06:04:06;94722.63;;;16.12;50.17
65832;BME280;52593;42.648;23.332;2022-07-11T06:06:31;94711.16;;;16.23;50.56
65832;BME280;52593;42.648;23.332;2022-07-11T06:08:57;94708.66;;;16.28;48.36
65832;BME280;52593;42.648;23.332;2022-07-11T06:11:22;94709.09;;;16.18;47.45
65832;BME280;52593;42.648;23.332;2022-07-11T06:13:48;94711.56;;;16.20;47.99
65832;BME280;52593;42.648;23.332;2022-07-11T06:16:15;94715.09;;;16.27;48.56
65832;BME280;52593;42.648;23.332;2022-07-11T06:18:51;94715.25;;;16.39;48.02
65832;BME280;52593;42.648;23.332;2022-07-11T06:21:16;94710.16;;;16.56;47.17
65832;BME280;52593;42.648;23.332;2022-07-11T06:23:42;94701.03;;;16.57;47.50
65832;BME280;52593;42.648;23.332;2022-07-11T06:26:08;94705.16;;;16.59;48.40
65832;BME280;52593;42.648;23.332;2022-07-11T06:28:33;94710.97;;;16.63;48.05
65832;BME280;52593;42.648;23.332;2022-07-11T06:31:00;94708.81;;;16.72;46.81
65832;BME280;52593;42.648;23.332;2022-07-11T06:33:25;94716.38;;;16.56;46.03
65832;BME280;52593;42.648;23.332;2022-07-11T06:35:51;94716.22;;;16.45;45.69
65832;BME280;52593;42.648;23.332;2022-07-11T06:38:16;94725.63;;;16.42;45.45
65832;BME280;52593;42.648;23.332;2022-07-11T06:40:42;94714.16;;;16.47;45.75
65832;BME280;52593;42.648;23.332;2022-07-11T06:43:09;94720.03;;;16.75;44.60
65832;BME280;52593;42.648;23.332;2022-07-11T06:45:34;94717.34;;;16.69;45.07
65832;BME280;52593;42.648;23.332;2022-07-11T06:48:00;94705.16;;;16.59;46.00
65832;BME280;52593;42.648;23.332;2022-07-11T06:50:25;94710.59;;;16.53;45.81
65832;BME280;52593;42.648;23.332;2022-07-11T06:52:51;94705.66;;;16.43;45.66
65832;BME280;52593;42.648;23.332;2022-07-11T06:55:16;94710.38;;;16.54;46.28
65832;BME280;52593;42.648;23.332;2022-07-11T06:57:42;94714.59;;;16.44;44.69
65832;BME280;52593;42.648;23.332;2022-07-11T07:00:08;94704.16;;;16.54;46.09
65832;BME280;52593;42.648;23.332;2022-07-11T07:02:35;94702.53;;;16.78;46.04
65832;BME280;52593;42.648;23.332;2022-07-11T07:05:01;94704.78;;;16.81;44.27
65832;BME280;52593;42.648;23.332;2022-07-11T07:07:27;94700.78;;;16.97;44.31
65832;BME280;52593;42.648;23.332;2022-07-11T07:09:53;94701.16;;;17.01;43.89
65832;BME280;52593;42.648;23.332;2022-07-11T07:12:20;94715.97;;;17.23;44.20
65832;BME280;52593;42.648;23.332;2022-07-11T07:14:45;94713.56;;;17.08;40.53
65832;BME280;52593;42.648;23.332;2022-07-11T07:17:11;94711.44;;;16.85;41.73
65832;BME280;52593;42.648;23.332;2022-07-11T07:19:36;94713.66;;;16.63;43.02
65832;BME280;52593;42.648;23.332;2022-07-11T07:22:02;94702.84;;;16.63;44.08
65832;BME280;52593;42.648;23.332;2022-07-11T07:24:27;94702.16;;;16.74;44.68
65832;BME280;52593;42.648;23.332;2022-07-11T07:26:53;94692.59;;;16.72;44.84
65832;BME280;52593;42.648;23.332;2022-07-11T07:29:18;94699.59;;;16.80;46.04
65832;BME280;52593;42.648;23.332;2022-07-11T07:31:44;94701.25;;;16.87;46.53
65832;BME280;52593;42.648;23.332;2022-07-11T07:34:09;94702.69;;;16.90;46.21
65832;BME280;52593;42.648;23.332;2022-07-11T07:36:35;94701.66;;;16.91;46.78
65832;BME280;52593;42.648;23.332;2022-07-11T07:39:01;94693.94;;;16.94;48.35
65832;BME280;52593;42.648;23.332;2022-07-11T07:41:26;94690.56;;;16.99;46.65
65832;BME280;52593;42.648;23.332;2022-07-11T07:43:52;94690.06;;;17.09;47.17
65832;BME280;52593;42.648;23.332;2022-07-11T07:46:18;94698.13;;;17.16;47.76
65832;BME280;52593;42.648;23.332;2022-07-11T07:48:44;94694.28;;;17.05;46.76
65832;BME280;52593;42.648;23.332;2022-07-11T07:51:10;94694.16;;;16.93;47.00
65832;BME280;52593;42.648;23.332;2022-07-11T07:53:36;94702.03;;;16.94;46.75
65832;BME280;52593;42.648;23.332;2022-07-11T07:58:43;94697.44;;;16.95;46.48
65832;BME280;52593;42.648;23.332;2022-07-11T08:01:08;94692.91;;;16.89;46.27
65832;BME280;52593;42.648;23.332;2022-07-11T08:03:53;94690.41;;;16.94;46.89
65832;BME280;52593;42.648;23.332;2022-07-11T08:06:20;94694.19;;;17.18;47.59
65832;BME280;52593;42.648;23.332;2022-07-11T08:08:45;94697.19;;;17.28;46.92
65832;BME280;52593;42.648;23.332;2022-07-11T08:11:11;94697.97;;;17.36;47.47
65832;BME280;52593;42.648;23.332;2022-07-11T08:13:37;94696.81;;;17.25;45.53
65832;BME280;52593;42.648;23.332;2022-07-11T08:16:06;94694.25;;;17.30;46.14
65832;BME280;52593;42.648;23.332;2022-07-11T08:18:33;94701.28;;;17.13;46.11
65832;BME280;52593;42.648;23.332;2022-07-11T08:20:58;94707.78;;;17.30;46.75
65832;BME280;52593;42.648;23.332;2022-07-11T08:23:24;94697.28;;;17.40;45.92
65832;BME280;52593;42.648;23.332;2022-07-11T08:25:49;94698.75;;;17.43;45.01
65832;BME280;52593;42.648;23.332;2022-07-11T08:28:15;94697.41;;;17.71;46.08
65832;BME280;52593;42.648;23.332;2022-07-11T08:30:40;94702.88;;;17.64;44.43
65832;BME280;52593;42.648;23.332;2022-07-11T08:33:06;94708.66;;;17.49;43.99
65832;BME280;52593;42.648;23.332;2022-07-11T08:35:31;94706.44;;;17.64;44.39
65832;BME280;52593;42.648;23.332;2022-07-11T08:37:56;94697.22;;;17.47;44.08
65832;BME280;52593;42.648;23.332;2022-07-11T08:40:22;94700.47;;;17.56;44.00
65832;BME280;52593;42.648;23.332;2022-07-11T08:42:47;94701.66;;;17.41;43.99
65832;BME280;52593;42.648;23.332;2022-07-11T08:45:16;94721.81;;;17.20;43.85
65832;BME280;52593;42.648;23.332;2022-07-11T08:47:43;94714.84;;;17.31;44.50
65832;BME280;52593;42.648;23.332;2022-07-11T08:50:11;94710.38;;;17.43;44.79
65832;BME280;52593;42.648;23.332;2022-07-11T08:52:37;94711.19;;;17.44;44.31
65832;BME280;52593;42.648;23.332;2022-07-11T08:55:04;94708.22;;;17.27;43.51
65832;BME280;52593;42.648;23.332;2022-07-11T08:57:35;94700.88;;;17.34;43.54
65832;BME280;52593;42.648;23.332;2022-07-11T09:00:03;94713.84;;;17.51;42.40
65832;BME280;52593;42.648;23.332;2022-07-11T09:02:32;94709.19;;;17.58;42.10
65832;BME280;52593;42.648;23.332;2022-07-11T09:04:58;94711.22;;;17.62;41.15
65832;BME280;52593;42.648;23.332;2022-07-11T09:07:23;94715.06;;;17.73;42.59
65832;BME280;52593;42.648;23.332;2022-07-11T09:09:49;94722.16;;;17.74;41.96
65832;BME280;52593;42.648;23.332;2022-07-11T09:12:15;94715.50;;;17.70;41.87
65832;BME280;52593;42.648;23.332;2022-07-11T09:14:49;94716.06;;;17.79;42.42
65832;BME280;52593;42.648;23.332;2022-07-11T09:17:18;94730.00;;;17.57;42.58
65832;BME280;52593;42.648;23.332;2022-07-11T09:19:49;94728.53;;;17.36;42.59
65832;BME280;52593;42.648;23.332;2022-07-11T09:22:16;94724.69;;;17.51;42.77
65832;BME280;52593;42.648;23.332;2022-07-11T09:25:05;94732.34;;;17.54;42.49
65832;BME280;52593;42.648;23.332;2022-07-11T09:28:01;94732.81;;;17.69;42.68
65832;BME280;52593;42.648;23.332;2022-07-11T09:30:38;94726.50;;;17.75;42.47
65832;BME280;52593;42.648;23.332;2022-07-11T09:33:09;94733.38;;;17.78;42.13
65832;BME280;52593;42.648;23.332;2022-07-11T09:35:40;94742.28;;;17.60;41.68
65832;BME280;52593;42.648;23.332;2022-07-11T09:38:11;94736.41;;;17.38;41.68
65832;BME280;52593;42.648;23.332;2022-07-11T09:40:37;94718.00;;;17.72;41.53
65832;BME280;52593;42.648;23.332;2022-07-11T09:43:04;94729.81;;;17.77;41.68
65832;BME280;52593;42.648;23.332;2022-07-11T09:45:32;94725.75;;;17.87;41.29
65832;BME280;52593;42.648;23.332;2022-07-11T09:47:59;94738.88;;;18.08;40.81
65832;BME280;52593;42.648;23.332;2022-07-11T09:50:30;94738.16;;;18.01;40.86
65832;BME280;52593;42.648;23.332;2022-07-11T09:53:03;94725.06;;;17.98;41.34
65832;BME280;52593;42.648;23.332;2022-07-11T09:55:42;94727.09;;;18.03;40.85
65832;BME280;52593;42.648;23.332;2022-07-11T09:58:11;94723.97;;;18.36;40.69
65832;BME280;52593;42.648;23.332;2022-07-11T10:00:38;94726.97;;;18.46;39.48
65832;BME280;52593;42.648;23.332;2022-07-11T10:03:05;94736.47;;;18.37;39.21
65832;BME280;52593;42.648;23.332;2022-07-11T10:05:31;94717.56;;;18.49;39.24
65832;BME280;52593;42.648;23.332;2022-07-11T10:07:58;94712.22;;;18.42;39.93
65832;BME280;52593;42.648;23.332;2022-07-11T10:10:24;94726.84;;;18.41;40.28
65832;BME280;52593;42.648;23.332;2022-07-11T10:12:51;94723.69;;;18.26;41.26
65832;BME280;52593;42.648;23.332;2022-07-11T10:15:22;94739.41;;;17.98;41.24
65832;BME280;52593;42.648;23.332;2022-07-11T10:20:52;94737.25;;;18.07;41.86
65832;BME280;52593;42.648;23.332;2022-07-11T10:31:02;94734.38;;;18.21;40.70
65832;BME280;52593;42.648;23.332;2022-07-11T10:33:29;94732.88;;;18.06;40.58
65832;BME280;52593;42.648;23.332;2022-07-11T10:35:55;94722.41;;;18.28;38.98
65832;BME280;52593;42.648;23.332;2022-07-11T10:38:22;94737.31;;;18.68;39.08
65832;BME280;52593;42.648;23.332;2022-07-11T10:40:56;94734.59;;;18.68;39.63
65832;BME280;52593;42.648;23.332;2022-07-11T10:45:55;94728.63;;;18.96;38.97
65832;BME280;52593;42.648;23.332;2022-07-11T10:48:22;94744.53;;;19.04;38.72
65832;BME280;52593;42.648;23.332;2022-07-11T10:51:14;94747.84;;;19.06;39.00
65832;BME280;52593;42.648;23.332;2022-07-11T10:53:46;94741.38;;;19.07;38.55
65832;BME280;52593;42.648;23.332;2022-07-11T10:59:17;94742.63;;;19.47;37.36
65832;BME280;52593;42.648;23.332;2022-07-11T11:02:11;94739.59;;;19.01;36.96
65832;BME280;52593;42.648;23.332;2022-07-11T11:07:32;94733.13;;;19.02;38.48
65832;BME280;52593;42.648;23.332;2022-07-11T11:15:58;94750.75;;;19.23;37.13
65832;BME280;52593;42.648;23.332;2022-07-11T11:23:25;94737.78;;;19.37;37.31
65832;BME280;52593;42.648;23.332;2022-07-11T11:25:51;94745.47;;;19.76;37.27
65832;BME280;52593;42.648;23.332;2022-07-11T11:28:21;94751.13;;;19.39;36.54
65832;BME280;52593;42.648;23.332;2022-07-11T11:30:54;94741.06;;;19.28;36.89
65832;BME280;52593;42.648;23.332;2022-07-11T11:33:20;94756.09;;;19.42;37.62
65832;BME280;52593;42.648;23.332;2022-07-11T11:38:26;94745.25;;;20.01;37.43
65832;BME280;52593;42.648;23.332;2022-07-11T11:40:51;94746.31;;;20.12;37.33
65832;BME280;52593;42.648;23.332;2022-07-11T11:43:20;94750.91;;;20.00;35.26
65832;BME280;52593;42.648;23.332;2022-07-11T11:45:50;94742.97;;;19.51;36.19
65832;BME280;52593;42.648;23.332;2022-07-11T11:48:36;94738.63;;;19.50;37.32
65832;BME280;52593;42.648;23.332;2022-07-11T11:51:10;94751.66;;;19.17;37.31
65832;BME280;52593;42.648;23.332;2022-07-11T11:53:46;94752.50;;;19.18;38.22
65832;BME280;52593;42.648;23.332;2022-07-11T11:56:28;94747.09;;;19.30;37.56
65832;BME280;52593;42.648;23.332;2022-07-11T11:58:59;94750.88;;;19.40;36.74
65832;BME280;52593;42.648;23.332;2022-07-11T12:01:29;94751.72;;;19.53;36.93
65832;BME280;52593;42.648;23.332;2022-07-11T12:03:59;94755.03;;;19.67;37.30
65832;BME280;52593;42.648;23.332;2022-07-11T12:06:29;94750.66;;;19.54;37.21
65832;BME280;52593;42.648;23.332;2022-07-11T12:11:40;94748.91;;;19.71;37.69
65832;BME280;52593;42.648;23.332;2022-07-11T12:14:08;94757.16;;;19.76;36.93
65832;BME280;52593;42.648;23.332;2022-07-11T12:16:38;94753.78;;;19.93;37.47
65832;BME280;52593;42.648;23.332;2022-07-11T12:19:05;94747.16;;;20.01;37.16
65832;BME280;52593;42.648;23.332;2022-07-11T12:21:33;94741.34;;;20.09;36.59
65832;BME280;52593;42.648;23.332;2022-07-11T12:24:01;94738.06;;;20.07;35.27
65832;BME280;52593;42.648;23.332;2022-07-11T12:26:28;94738.63;;;20.09;36.56
65832;BME280;52593;42.648;23.332;2022-07-11T12:29:10;94752.66;;;20.29;36.69
65832;BME280;52593;42.648;23.332;2022-07-11T12:34:16;94729.94;;;20.47;36.53
65832;BME280;52593;42.648;23.332;2022-07-11T12:36:41;94744.50;;;20.82;35.39
65832;BME280;52593;42.648;23.332;2022-07-11T12:39:08;94740.53;;;20.73;36.44
65832;BME280;52593;42.648;23.332;2022-07-11T12:41:34;94729.72;;;20.37;35.47
65832;BME280;52593;42.648;23.332;2022-07-11T12:44:00;94743.44;;;20.30;36.39
65832;BME280;52593;42.648;23.332;2022-07-11T12:46:44;94726.88;;;20.44;35.55
65832;BME280;52593;42.648;23.332;2022-07-11T12:49:13;94722.97;;;20.40;35.84
65832;BME280;52593;42.648;23.332;2022-07-11T12:51:41;94727.59;;;20.27;35.47
65832;BME280;52593;42.648;23.332;2022-07-11T12:54:07;94736.69;;;20.33;35.64
65832;BME280;52593;42.648;23.332;2022-07-11T12:56:34;94739.91;;;20.18;35.68
65832;BME280;52593;42.648;23.332;2022-07-11T12:59:02;94738.06;;;20.07;35.94
65832;BME280;52593;42.648;23.332;2022-07-11T13:01:29;94750.63;;;20.37;36.57
65832;BME280;52593;42.648;23.332;2022-07-11T13:03:57;94737.94;;;20.54;34.64
65832;BME280;52593;42.648;23.332;2022-07-11T13:06:23;94723.38;;;20.72;35.85
65832;BME280;52593;42.648;23.332;2022-07-11T13:09:07;94724.94;;;20.56;34.99
65832;BME280;52593;42.648;23.332;2022-07-11T13:11:33;94723.22;;;20.79;35.06
65832;BME280;52593;42.648;23.332;2022-07-11T13:13:59;94738.28;;;20.98;34.90
65832;BME280;52593;42.648;23.332;2022-07-11T13:16:25;94726.13;;;21.18;34.85
65832;BME280;52593;42.648;23.332;2022-07-11T13:18:50;94718.03;;;21.06;33.81
65832;BME280;52593;42.648;23.332;2022-07-11T13:21:16;94731.66;;;20.94;33.97
65832;BME280;52593;42.648;23.332;2022-07-11T13:23:42;94726.88;;;21.47;33.26
65832;BME280;52593;42.648;23.332;2022-07-11T13:26:09;94723.50;;;21.40;34.09
65832;BME280;52593;42.648;23.332;2022-07-11T13:28:35;94723.28;;;20.96;34.44
65832;BME280;52593;42.648;23.332;2022-07-11T13:31:00;94730.56;;;20.78;34.59